Time;durP1;ratioP1;P1;durP2;ratioP2;P2;SDS_P1;SDS_P2;PMS_P1;PMS_P2;Temp;Humidity;BMP_temperature;BMP_pressure;BME280_temperature;BME280_humidity;BME280_pressure;Samples;Min_cycle;Max_cycle;Signal;HPM_P1;HPM_P2
2022/04/26 03:38:33;;;;;;;;;37.25;34.00;;;;;11.54;58.12;101234.66;5039022;28;45227;-39
2022/04/26 03:40:59;;;;;;;;;45.00;33.50;;;;;11.51;58.63;101240.28;5038691;28;46742;-42
2022/04/26 03:43:24;;;;;;;;;39.00;29.75;;;;;11.47;58.74;101236.22;5039054;28;45439;-40
2022/04/26 03:45:49;;;;;;;;;41.25;31.25;;;;;11.43;58.58;101238.31;5038905;28;45350;-44
2022/04/26 03:48:15;;;;;;;;;46.25;36.75;;;;;11.41;58.98;101239.41;5039148;28;45320;-38
2022/04/26 03:50:40;;;;;;;;;43.50;32.00;;;;;11.40;59.04;101243.06;5038718;28;46209;-39
2022/04/26 03:53:06;;;;;;;;;53.75;36.25;;;;;11.35;59.23;101240.00;5038633;28;45250;-43
2022/04/26 03:55:31;;;;;;;;;40.50;36.00;;;;;11.34;59.29;101249.81;5039135;28;45403;-42
2022/04/26 03:57:57;;;;;;;;;50.00;34.75;;;;;11.33;59.48;101239.28;5039055;28;45358;-39
2022/04/26 04:00:23;;;;;;;;;46.50;33.75;;;;;11.33;59.59;101241.94;5038342;28;46192;-40
2022/04/26 04:02:49;;;;;;;;;45.00;35.00;;;;;11.30;59.42;101237.75;5038209;28;45329;-43
2022/04/26 04:05:14;;;;;;;;;47.75;37.00;;;;;11.28;59.21;101238.84;5038651;28;45855;-38
2022/04/26 04:07:39;;;;;;;;;49.00;39.50;;;;;11.25;59.51;101245.31;5038830;28;45397;-39
2022/04/26 04:10:05;;;;;;;;;48.50;36.25;;;;;11.26;59.94;101252.31;5038322;28;46288;-40
2022/04/26 04:12:31;;;;;;;;;47.75;38.25;;;;;11.27;59.85;101253.16;5038397;28;45381;-40
2022/04/26 04:14:56;;;;;;;;;46.00;36.50;;;;;11.25;60.00;101250.66;5038350;28;45463;-42
2022/04/26 04:17:21;;;;;;;;;54.00;40.00;;;;;11.22;59.85;101250.91;5038684;28;45479;-40
2022/04/26 04:19:47;;;;;;;;;44.75;35.00;;;;;11.23;59.88;101260.59;5038386;28;46291;-38
2022/04/26 04:22:14;;;;;;;;;42.00;37.25;;;;;11.23;59.68;101256.09;5038194;28;45432;-40
2022/04/26 04:24:39;;;;;;;;;43.50;37.75;;;;;11.30;59.75;101263.53;5037201;28;45400;-38
2022/04/26 04:27:05;;;;;;;;;44.75;35.75;;;;;11.27;59.77;101254.00;5038516;28;45512;-39
2022/04/26 04:29:30;;;;;;;;;47.25;37.25;;;;;11.26;59.68;101256.81;5038073;28;46361;-38
2022/04/26 04:31:56;;;;;;;;;50.00;39.75;;;;;11.26;59.64;101270.97;5038312;28;45411;-40
2022/04/26 04:34:22;;;;;;;;;46.50;37.50;;;;;11.22;59.94;101269.56;5038443;28;45387;-42
2022/04/26 04:36:48;;;;;;;;;49.50;37.00;;;;;11.26;59.86;101267.47;5038388;28;45399;-38
2022/04/26 04:39:19;;;;;;;;;59.25;40.00;;;;;11.25;60.15;101279.94;5037974;28;45364;-41
2022/04/26 04:41:45;;;;;;;;;50.25;38.00;;;;;11.26;60.09;101286.94;5038060;28;45324;-38
2022/04/26 04:44:11;;;;;;;;;48.50;37.00;;;;;11.29;59.82;101283.97;5038227;28;45262;-44
2022/04/26 04:46:36;;;;;;;;;45.50;36.75;;;;;11.30;59.26;101285.69;5037210;28;45281;-39
2022/04/26 04:49:02;;;;;;;;;54.00;37.75;;;;;11.29;60.04;101291.97;5038036;28;46087;-40
2022/04/26 04:51:28;;;;;;;;;56.25;35.50;;;;;11.27;60.15;101285.13;5038131;28;45213;-38
2022/04/26 04:53:54;;;;;;;;;54.75;40.25;;;;;11.26;60.15;101289.59;5037793;28;45349;-40
2022/04/26 04:56:19;;;;;;;;;51.25;39.50;;;;;11.24;59.92;101297.72;5038154;28;45298;-39
2022/04/26 04:58:44;;;;;;;;;47.25;39.75;;;;;11.22;60.03;101291.69;5037978;28;46072;-40
2022/04/26 05:01:10;;;;;;;;;55.50;39.25;;;;;11.29;60.31;101309.78;5037423;28;45602;-40
2022/04/26 05:03:35;;;;;;;;;51.50;40.50;;;;;11.31;60.57;101310.50;5037868;28;45577;-38
2022/04/26 05:06:01;;;;;;;;;45.50;33.75;;;;;11.37;60.27;101318.75;5037882;28;45220;-44
2022/04/26 05:08:26;;;;;;;;;45.25;39.00;;;;;11.44;59.98;101311.91;5037493;28;45391;-45
2022/04/26 05:10:52;;;;;;;;;54.25;40.50;;;;;11.49;59.76;101315.00;5037438;28;45410;-39
2022/04/26 05:13:17;;;;;;;;;52.50;39.50;;;;;11.53;60.13;101314.72;5036875;28;45349;-39
2022/04/26 05:15:44;;;;;;;;;53.75;40.25;;;;;11.58;59.50;101318.66;5038526;28;45353;-46
2022/04/26 05:18:11;;;;;;;;;57.00;45.00;;;;;11.60;59.56;101314.03;5036841;28;46272;-40
2022/04/26 05:20:37;;;;;;;;;52.25;41.25;;;;;11.67;59.37;101322.31;5038039;28;45262;-44
2022/04/26 05:25:46;;;;;;;;;53.00;37.00;;;;;11.77;59.17;101325.00;5037591;28;45213;-43
2022/04/26 05:28:12;;;;;;;;;56.75;41.50;;;;;11.82;59.20;101338.72;5037230;28;46024;-38
2022/04/26 05:30:37;;;;;;;;;55.50;41.50;;;;;11.84;59.02;101342.13;5037501;28;45257;-38
2022/04/26 05:33:02;;;;;;;;;55.00;42.75;;;;;11.84;58.37;101343.00;5037272;28;45261;-41
2022/04/26 05:35:28;;;;;;;;;62.25;47.50;;;;;11.85;59.13;101343.81;5037561;28;45267;-38
2022/04/26 05:37:53;;;;;;;;;65.50;47.25;;;;;11.85;59.02;101347.31;5037078;28;45266;-38
2022/04/26 05:40:18;;;;;;;;;60.75;44.50;;;;;11.86;59.11;101345.50;5036959;28;45235;-41
2022/04/26 05:42:44;;;;;;;;;59.75;45.00;;;;;11.88;58.96;101356.84;5037160;28;45312;-38
2022/04/26 05:45:09;;;;;;;;;61.50;45.75;;;;;11.88;59.20;101360.38;5037237;28;45282;-41
2022/04/26 05:47:41;;;;;;;;;48.75;34.75;;;;;11.75;57.57;101346.44;5037192;28;46332;-38
2022/04/26 05:50:08;;;;;;;;;61.75;44.00;;;;;11.87;58.93;101364.00;5037064;28;45285;-38
2022/04/26 05:52:34;;;;;;;;;68.75;47.50;;;;;11.86;58.91;101361.50;5036885;28;45283;-38
2022/04/26 05:55:00;;;;;;;;;61.25;44.75;;;;;11.83;59.44;101362.59;5036927;28;45308;-44
2022/04/26 05:57:27;;;;;;;;;57.50;44.75;;;;;11.87;59.47;101369.34;5036706;28;46334;-40
2022/04/26 05:59:52;;;;;;;;;65.75;44.75;;;;;11.89;59.84;101362.06;5036503;28;45320;-42
2022/04/26 06:02:18;;;;;;;;;67.25;49.00;;;;;11.91;58.87;101367.25;5036755;28;45717;-40
2022/04/26 06:04:44;;;;;;;;;63.00;45.75;;;;;11.94;59.20;101370.47;5036883;28;45328;-39
2022/04/26 06:07:10;;;;;;;;;60.25;48.25;;;;;11.87;58.95;101349.84;5035775;28;46074;-40
2022/04/26 06:09:37;;;;;;;;;63.00;47.25;;;;;12.02;59.23;101360.94;5034227;28;45453;-39
2022/04/26 06:12:03;;;;;;;;;61.00;46.50;;;;;12.07;58.91;101358.69;5036602;28;45279;-39
2022/04/26 06:14:29;;;;;;;;;67.00;47.75;;;;;12.15;58.89;101361.50;5036943;28;45441;-37
2022/04/26 06:16:54;;;;;;;;;57.75;44.00;;;;;12.26;58.90;101360.47;5036089;28;45374;-46
2022/04/26 06:19:19;;;;;;;;;61.50;47.00;;;;;12.42;58.28;101363.41;5036531;28;45313;-37
2022/04/26 06:21:45;;;;;;;;;61.25;47.50;;;;;12.66;57.86;101362.94;5036642;28;45580;-38
2022/04/26 06:24:10;;;;;;;;;63.00;47.25;;;;;12.91;57.67;101359.63;5036592;28;45445;-38
2022/04/26 06:26:36;;;;;;;;;56.50;40.25;;;;;13.14;56.54;101356.56;5039757;28;46255;-42
2022/04/26 06:29:02;;;;;;;;;62.75;48.00;;;;;13.31;56.64;101357.63;5039913;28;45461;-39
2022/04/26 06:31:27;;;;;;;;;53.50;40.75;;;;;13.46;55.92;101373.00;5040138;28;45339;-38
2022/04/26 06:33:52;;;;;;;;;62.75;45.50;;;;;13.53;56.01;101357.22;5040236;28;45462;-38
2022/04/26 06:36:18;;;;;;;;;62.75;44.50;;;;;13.76;55.22;101359.44;5039794;28;46095;-46
2022/04/26 06:38:43;;;;;;;;;57.00;42.00;;;;;13.93;54.81;101372.81;5039875;28;45414;-45
2022/04/26 06:41:08;;;;;;;;;66.25;46.00;;;;;14.02;54.62;101370.19;5039950;28;45442;-39
2022/04/26 06:43:34;;;;;;;;;62.00;47.00;;;;;14.04;54.20;101377.09;5040308;28;45404;-47
2022/04/26 06:46:00;;;;;;;;;66.25;46.25;;;;;14.06;54.16;101385.78;5040019;28;45290;-38
2022/04/26 06:48:26;;;;;;;;;66.50;47.00;;;;;14.08;53.92;101380.31;5039866;28;45357;-38
2022/04/26 06:50:54;;;;;;;;;59.00;45.50;;;;;14.11;53.94;101367.44;5039892;28;45221;-47
2022/04/26 06:53:20;;;;;;;;;61.75;48.75;;;;;14.23;53.48;101381.41;5040124;28;45197;-47
2022/04/26 06:55:45;;;;;;;;;61.00;46.75;;;;;14.30;53.51;101393.19;5039532;28;46039;-40
2022/04/26 06:58:10;;;;;;;;;72.25;48.50;;;;;14.22;53.39;101393.13;5039410;28;45206;-43
2022/04/26 07:00:36;;;;;;;;;60.25;43.75;;;;;14.16;53.49;101383.06;5039664;28;45604;-37
2022/04/26 07:03:01;;;;;;;;;63.75;47.75;;;;;14.10;53.67;101379.13;5039981;28;45341;-37
2022/04/26 07:05:27;;;;;;;;;59.00;48.50;;;;;14.08;54.11;101396.34;5039555;28;45993;-37
2022/04/26 07:07:52;;;;;;;;;66.00;46.00;;;;;13.97;53.98;101395.56;5039647;28;45392;-38
2022/04/26 07:10:18;;;;;;;;;57.25;42.75;;;;;13.84;54.36;101403.16;5039369;28;45397;-42
2022/04/26 07:12:43;;;;;;;;;68.00;45.25;;;;;13.82;54.62;101391.78;5039611;28;45508;-38
2022/04/26 07:15:09;;;;;;;;;54.00;41.00;;;;;13.87;53.42;101400.19;5036784;28;46168;-39
2022/04/26 07:17:40;;;;;;;;;57.00;44.00;;;;;13.82;54.22;101409.63;5036615;28;45460;-39
2022/04/26 07:20:05;;;;;;;;;62.00;48.75;;;;;13.77;53.97;101410.09;5039226;28;45338;-37
2022/04/26 07:22:32;;;;;;;;;60.25;46.00;;;;;13.78;54.05;101410.91;5039458;28;45434;-37
2022/04/26 07:24:57;;;;;;;;;64.00;47.50;;;;;13.83;54.23;101409.50;5038106;28;45465;-38
2022/04/26 07:27:22;;;;;;;;;62.75;47.25;;;;;13.80;54.24;101416.97;5037818;28;45341;-41
2022/04/26 07:29:52;;;;;;;;;61.75;45.25;;;;;13.87;53.97;101415.38;5020073;28;45322;-40
2022/04/26 07:32:18;;;;;;;;;57.50;44.25;;;;;14.07;53.41;101408.88;5019083;28;45254;-41
2022/04/26 07:34:45;;;;;;;;;64.25;48.00;;;;;14.28;52.89;101413.91;5018637;28;46372;-40
2022/04/26 07:37:11;;;;;;;;;60.00;44.00;;;;;14.63;52.56;101414.91;5017903;28;45543;-38
2022/04/26 07:39:36;;;;;;;;;64.25;48.25;;;;;15.59;50.99;101406.63;5018755;28;45431;-39
2022/04/26 07:42:04;;;;;;;;;56.25;42.25;;;;;16.43;49.17;101413.66;5018677;28;45381;-38
2022/04/26 07:44:30;;;;;;;;;55.25;42.75;;;;;17.16;47.74;101420.78;5018555;28;45395;-39
2022/04/26 07:46:57;;;;;;;;;60.50;45.75;;;;;17.82;45.58;101416.78;5018473;28;45566;-40
2022/04/26 07:49:26;;;;;;;;;59.75;44.50;;;;;17.98;45.00;101420.38;5018521;28;45452;-42
2022/04/26 07:51:52;;;;;;;;;54.25;39.75;;;;;17.82;46.82;101426.72;5018710;28;45283;-39
2022/04/26 07:54:18;;;;;;;;;61.75;45.00;;;;;17.94;45.90;101431.50;5018316;28;46060;-40
2022/04/26 07:56:44;;;;;;;;;61.50;45.25;;;;;18.37;44.17;101417.56;5016945;28;45508;-40
2022/04/26 07:59:10;;;;;;;;;64.25;48.00;;;;;18.81;43.44;101431.16;5018414;28;45389;-41
2022/04/26 08:01:36;;;;;;;;;59.50;46.75;;;;;19.09;42.02;101433.25;5018450;28;45417;-37
2022/04/26 08:04:02;;;;;;;;;56.75;44.25;;;;;18.99;42.77;101424.56;5018601;28;45997;-36
2022/04/26 08:06:28;;;;;;;;;59.00;42.33;;;;;19.01;42.18;101446.81;5018403;28;45421;-39
2022/04/26 08:08:54;;;;;;;;;51.33;40.33;;;;;19.44;41.27;101439.72;5018442;28;45393;-38
2022/04/26 08:11:20;;;;;;;;;59.33;41.33;;;;;19.15;43.59;101452.19;5018507;28;45357;-38
2022/04/26 08:13:46;;;;;;;;;55.33;41.67;;;;;18.97;42.03;101451.72;5017979;28;46049;-38
2022/04/26 08:16:12;;;;;;;;;54.00;43.25;;;;;18.93;41.29;101442.34;5017965;28;45443;-38
2022/04/26 08:18:37;;;;;;;;;55.75;43.00;;;;;18.53;42.17;101457.00;5018281;28;45386;-42
2022/04/26 08:21:05;;;;;;;;;59.00;43.33;;;;;18.42;42.64;101450.19;5018331;28;45353;-39
2022/04/26 08:23:31;;;;;;;;;66.33;45.33;;;;;18.72;42.18;101450.31;5018310;28;45435;-45
2022/04/26 08:28:40;;;;;;;;;58.67;44.00;;;;;18.45;42.06;101457.91;5018206;28;45551;-41
2022/04/26 08:31:06;;;;;;;;;57.33;44.67;;;;;18.93;41.75;101458.50;5018295;28;45376;-38
2022/04/26 08:33:34;;;;;;;;;59.33;44.67;;;;;18.75;41.29;101461.56;5023530;28;46306;-38
2022/04/26 08:36:00;;;;;;;;;59.00;43.33;;;;;20.47;39.11;101459.34;5037911;28;45226;-37
2022/04/26 08:38:25;;;;;;;;;52.33;39.00;;;;;21.05;37.31;101463.56;5037897;28;45338;-39
2022/04/26 08:40:51;;;;;;;;;52.33;41.67;;;;;21.47;36.71;101463.63;5037849;28;45408;-43
2022/04/26 08:43:16;;;;;;;;;54.33;41.00;;;;;20.57;37.05;101468.84;5038081;28;45352;-46
2022/04/26 08:45:45;;;;;;;;;59.67;42.33;;;;;19.81;38.83;101465.75;5037899;28;45333;-42
2022/04/26 08:51:04;;;;;;;;;56.00;45.33;;;;;20.29;37.91;101476.03;5034193;28;45464;-39
2022/04/26 08:53:35;;;;;;;;;53.00;41.33;;;;;20.26;38.08;101479.09;5035143;28;46656;-38
2022/04/26 08:56:08;;;;;;;;;52.00;40.00;;;;;20.48;37.44;101486.22;5033058;28;45856;-38
2022/04/26 08:58:35;;;;;;;;;56.33;42.67;;;;;20.24;37.98;101486.56;5035139;28;45477;-44
2022/04/26 09:01:09;;;;;;;;;55.00;42.33;;;;;19.50;39.36;101495.63;5034939;28;45356;-43
2022/04/26 09:03:56;;;;;;;;;54.67;43.33;;;;;19.47;39.37;101487.94;5034974;28;46403;-44
2022/04/26 09:06:21;;;;;;;;;51.00;41.33;;;;;19.87;38.99;101500.09;5017009;28;45389;-38
2022/04/26 09:08:48;;;;;;;;;54.33;42.00;;;;;20.41;37.27;101488.81;5034181;28;45662;-40
2022/04/26 09:11:32;;;;;;;;;59.67;42.00;;;;;20.63;37.23;101478.03;5035090;28;45478;-40
2022/04/26 09:13:59;;;;;;;;;54.00;41.00;;;;;20.94;36.86;101496.56;5034582;28;46251;-41
2022/04/26 09:16:25;;;;;;;;;52.33;41.00;;;;;21.20;36.26;101489.69;5032371;28;45646;-41
2022/04/26 09:18:53;;;;;;;;;56.00;43.33;;;;;22.91;34.72;101496.72;5034814;28;45503;-39
2022/04/26 09:21:19;;;;;;;;;54.67;43.00;;;;;25.36;30.65;101489.06;5034628;28;45456;-36
2022/04/26 09:23:47;;;;;;;;;52.00;40.00;;;;;25.69;28.80;101496.03;5034418;28;45506;-40
2022/04/26 09:26:15;;;;;;;;;52.67;40.00;;;;;24.50;31.32;101512.47;5034295;28;45601;-41
2022/04/26 09:28:45;;;;;;;;;48.67;39.00;;;;;23.27;31.90;101515.25;5034698;28;45562;-40
2022/04/26 09:31:34;;;;;;;;;52.00;40.67;;;;;22.21;33.96;101517.09;5034601;28;45405;-39
2022/04/26 09:34:10;;;;;;;;;50.67;39.33;;;;;21.47;34.58;101524.03;5034272;28;46006;-44
2022/04/26 09:36:43;;;;;;;;;49.67;40.67;;;;;20.71;36.56;101529.25;5033905;28;45428;-41
2022/04/26 09:39:09;;;;;;;;;49.67;41.00;;;;;20.12;37.19;101524.06;5034496;28;46554;-44
2022/04/26 09:41:35;;;;;;;;;54.00;40.33;;;;;19.55;37.79;101527.44;5034209;28;45479;-39
2022/04/26 09:44:06;;;;;;;;;50.67;39.67;;;;;18.99;38.93;101532.44;5034000;28;46131;-45
2022/04/26 09:46:40;;;;;;;;;57.33;43.00;;;;;18.45;39.93;101522.56;5034505;28;45456;-46
2022/04/26 09:49:09;;;;;;;;;51.33;40.67;;;;;17.97;40.80;101538.00;5034247;28;45432;-41
2022/04/26 09:51:36;;;;;;;;;58.67;44.33;;;;;17.52;41.42;101539.47;5034207;28;45447;-43
2022/04/26 09:54:02;;;;;;;;;56.33;40.00;;;;;17.17;42.38;101533.53;5034000;28;46953;-46
2022/04/26 09:56:30;;;;;;;;;59.00;44.25;;;;;16.98;42.76;101539.28;5033995;28;45425;-39
2022/04/26 09:58:58;;;;;;;;;60.00;42.67;;;;;16.84;43.32;101548.00;5033716;28;45769;-38
2022/04/26 10:01:47;;;;;;;;;57.50;42.25;;;;;16.63;43.56;101551.97;5033955;28;45594;-38
2022/04/26 10:04:20;;;;;;;;;52.25;43.00;;;;;16.53;43.89;101551.31;5034007;28;46481;-38
2022/04/26 10:06:49;;;;;;;;;53.00;39.75;;;;;16.46;43.90;101551.13;5033770;28;45492;-49
2022/04/26 10:09:15;;;;;;;;;55.25;44.50;;;;;16.37;44.50;101559.34;5034427;28;45395;-41
2022/04/26 10:11:41;;;;;;;;;50.33;40.00;;;;;16.23;44.00;101533.13;5034594;28;45405;-48
2022/04/26 10:14:08;;;;;;;;;61.00;42.75;;;;;16.42;44.55;101552.44;5033964;28;45397;-44
2022/04/26 10:16:33;;;;;;;;;55.00;43.75;;;;;16.88;44.08;101549.34;5033865;28;45398;-43
2022/04/26 10:19:10;;;;;;;;;57.25;41.75;;;;;16.98;44.75;101554.53;5036914;28;45447;-42
2022/04/26 10:21:35;;;;;;;;;52.75;40.00;;;;;17.13;44.73;101556.38;5036766;28;45274;-38
2022/04/26 10:24:04;;;;;;;;;59.50;44.50;;;;;17.54;43.67;101560.84;5036495;28;46155;-37
2022/04/26 10:26:33;;;;;;;;;57.50;42.75;;;;;17.59;43.09;101553.94;5036584;28;45263;-37
2022/04/26 10:29:08;;;;;;;;;52.67;39.67;;;;;19.73;41.04;101552.25;5036429;28;45734;-36
2022/04/26 10:32:10;;;;;;;;;60.67;44.00;;;;;24.09;33.37;101549.06;5036668;28;45428;-38
2022/04/26 10:34:39;;;;;;;;;51.67;38.33;;;;;26.75;29.44;101536.31;5033935;28;47343;-39
2022/04/26 10:37:07;;;;;;;;;44.33;37.67;;;;;28.93;28.08;101546.59;5033713;28;45398;-40
2022/04/26 10:39:35;;;;;;;;;50.00;40.00;;;;;30.78;24.13;101539.59;5034295;28;45452;-39
2022/04/26 10:42:03;;;;;;;;;49.00;40.67;;;;;29.48;25.49;101540.28;5034198;28;45296;-42
2022/04/26 10:44:32;;;;;;;;;51.00;39.33;;;;;27.97;26.93;101551.13;5033988;28;46190;-42
2022/04/26 10:47:03;;;;;;;;;49.67;39.00;;;;;26.57;27.95;101548.13;5033996;28;45461;-38
2022/04/26 10:49:40;;;;;;;;;46.67;37.00;;;;;25.71;29.64;101551.97;5034232;28;45385;-37
2022/04/26 10:52:18;;;;;;;;;50.67;40.00;;;;;24.91;29.60;101545.66;5034484;28;46000;-37
2022/04/26 10:54:46;;;;;;;;;47.00;38.00;;;;;24.02;30.45;101551.00;5034190;28;46626;-40
2022/04/26 10:57:18;;;;;;;;;48.33;38.00;;;;;23.39;31.92;101553.47;5034061;28;45664;-39
2022/04/26 10:59:48;;;;;;;;;52.67;40.00;;;;;22.86;32.64;101553.47;5033727;28;45271;-38
2022/04/26 11:02:16;;;;;;;;;47.33;38.67;;;;;22.34;33.95;101553.19;5034156;28;45437;-40
2022/04/26 11:04:42;;;;;;;;;40.00;33.00;;;;;22.05;33.11;101548.88;5017360;28;46382;-40
2022/04/26 11:07:17;;;;;;;;;49.67;36.67;;;;;21.93;34.10;101550.50;5016961;28;45303;-46
2022/04/26 11:09:50;;;;;;;;;51.33;40.00;;;;;21.53;34.25;101557.56;5035939;28;45239;-40
2022/04/26 11:12:17;;;;;;;;;48.67;37.67;;;;;21.57;34.26;101554.25;5037606;28;45355;-43
2022/04/26 11:14:43;;;;;;;;;49.67;39.67;;;;;22.02;34.14;101548.44;5039152;28;45950;-41
2022/04/26 11:17:09;;;;;;;;;50.67;39.00;;;;;21.76;34.14;101546.47;5039398;28;45360;-38
2022/04/26 11:19:37;;;;;;;;;48.67;38.33;;;;;22.00;34.65;101545.94;5039240;28;45357;-41
2022/04/26 11:22:07;;;;;;;;;47.33;38.67;;;;;22.58;32.79;101550.91;5039517;28;45374;-38
2022/04/26 11:30:02;;;;;;;;;46.33;37.67;;;;;22.40;33.27;101552.34;5039415;28;45356;-44
2022/04/26 11:32:30;;;;;;;;;40.00;35.67;;;;;22.06;33.70;101552.44;5039586;28;45450;-39
2022/04/26 11:34:56;;;;;;;;;47.33;36.33;;;;;21.93;33.67;101542.38;5039074;28;47185;-41
2022/04/26 11:37:22;;;;;;;;;50.33;37.33;;;;;21.61;34.11;101550.13;5039462;28;45710;-48
2022/04/26 11:39:48;;;;;;;;;42.67;36.00;;;;;21.21;34.61;101548.19;5039261;28;45384;-46
2022/04/26 11:42:13;;;;;;;;;46.33;34.33;;;;;21.02;35.20;101538.88;5039251;28;45320;-46
2022/04/26 11:45:03;;;;;;;;;49.33;38.00;;;;;21.16;35.41;101559.59;5038865;28;45381;-42
2022/04/26 11:47:49;;;;;;;;;50.33;38.00;;;;;21.44;34.71;101551.47;5039036;28;45222;-47
2022/04/26 11:50:16;;;;;;;;;48.33;37.00;;;;;21.28;34.35;101557.16;5039059;28;45403;-45
2022/04/26 11:52:43;;;;;;;;;47.67;36.67;;;;;20.92;34.83;101550.88;5039149;28;45238;-42
2022/04/26 11:55:20;;;;;;;;;46.67;34.67;;;;;20.66;35.42;101553.34;5038889;28;46310;-42
2022/04/26 11:57:47;;;;;;;;;43.00;37.67;;;;;20.44;35.70;101553.31;5038444;28;45430;-42
2022/04/26 12:00:16;;;;;;;;;46.67;36.67;;;;;20.26;36.38;101554.75;5038125;28;45528;-39
2022/04/26 12:02:45;;;;;;;;;47.33;37.33;;;;;20.19;36.34;101558.22;5038832;28;45281;-38
2022/04/26 12:05:11;;;;;;;;;46.67;34.00;;;;;20.09;36.55;101559.53;5038247;28;46110;-38
2022/04/26 12:07:37;;;;;;;;;45.00;38.67;;;;;19.94;37.13;101560.41;5038412;28;45336;-39
2022/04/26 12:10:03;;;;;;;;;47.33;35.00;;;;;19.81;36.94;101557.56;5038453;28;45309;-39
2022/04/26 12:12:29;;;;;;;;;47.67;35.33;;;;;19.60;37.30;101552.88;5038531;28;45175;-45
2022/04/26 12:14:55;;;;;;;;;42.67;35.33;;;;;19.50;37.25;101546.91;5038273;28;46406;-40
2022/04/26 12:17:29;;;;;;;;;46.33;35.00;;;;;19.55;37.72;101555.31;5037987;28;45460;-42
2022/04/26 12:19:55;;;;;;;;;43.33;35.00;;;;;19.75;37.48;101562.84;5038465;28;45220;-39
2022/04/26 12:22:25;;;;;;;;;52.67;38.33;;;;;19.73;37.68;101551.41;5038123;28;45364;-44
2022/04/26 12:24:52;;;;;;;;;40.00;32.67;;;;;19.56;37.87;101559.66;5038279;28;46347;-44
2022/04/26 12:27:19;;;;;;;;;41.67;36.00;;;;;19.41;38.53;101564.22;5038146;28;45231;-39
2022/04/26 12:29:51;;;;;;;;;44.67;35.33;;;;;19.27;38.64;101560.47;5038031;28;45433;-48
2022/04/26 12:32:23;;;;;;;;;47.67;35.33;;;;;19.16;38.59;101556.34;5038564;28;45526;-39
2022/04/26 12:34:52;;;;;;;;;47.33;33.33;;;;;19.32;38.38;101563.44;5038164;28;47241;-39
2022/04/26 12:37:26;;;;;;;;;46.00;36.00;;;;;19.67;38.03;101553.81;5033532;28;45496;-44
2022/04/26 12:40:15;;;;;;;;;43.33;35.00;;;;;19.77;37.48;101550.84;5035503;28;45513;-40
2022/04/26 12:42:42;;;;;;;;;38.33;30.00;;;;;19.61;37.51;101559.97;5035523;28;46647;-40
2022/04/26 12:45:21;;;;;;;;;36.33;30.00;;;;;19.42;37.99;101545.16;5034978;28;45503;-41
2022/04/26 12:50:54;;;;;;;;;34.00;30.00;;;;;19.47;37.54;101541.91;5035368;28;45332;-39
2022/04/26 12:53:24;;;;;;;;;41.33;32.33;;;;;19.32;37.87;101549.97;5035039;28;45577;-47
2022/04/26 12:55:52;;;;;;;;;38.67;34.00;;;;;19.28;37.91;101543.25;5035055;28;46086;-44
2022/04/26 12:58:33;;;;;;;;;37.00;29.67;;;;;19.24;38.33;101544.66;5034974;28;45393;-43
2022/04/26 13:00:59;;;;;;;;;36.00;32.00;;;;;19.17;38.33;101543.69;5034809;28;45570;-40
2022/04/26 13:03:24;;;;;;;;;38.67;32.33;;;;;19.06;38.48;101533.38;5035462;28;45484;-39
2022/04/26 13:06:03;;;;;;;;;39.00;31.33;;;;;19.14;38.25;101544.09;5034660;28;47106;-42
2022/04/26 13:08:28;;;;;;;;;32.33;31.33;;;;;19.29;37.89;101538.69;5035074;28;45505;-41
2022/04/26 13:10:54;;;;;;;;;37.00;28.33;;;;;19.41;37.72;101543.47;5034941;28;45606;-39
2022/04/26 13:13:20;;;;;;;;;45.00;33.00;;;;;19.31;37.32;101533.97;5035206;28;45504;-41
2022/04/26 13:15:46;;;;;;;;;35.33;30.33;;;;;19.39;37.38;101534.72;5034542;28;46092;-43
2022/04/26 13:18:14;;;;;;;;;32.67;26.00;;;;;19.48;37.44;101531.94;5034848;28;45405;-40
2022/04/26 13:20:39;;;;;;;;;30.33;27.33;;;;;19.58;37.29;101527.91;5034804;28;46423;-38
2022/04/26 13:23:05;;;;;;;;;29.67;27.00;;;;;19.50;36.93;101530.72;5035013;28;45471;-41
2022/04/26 13:25:30;;;;;;;;;32.00;25.67;;;;;19.56;36.95;101529.16;5034510;28;47005;-41
2022/04/26 13:27:56;;;;;;;;;35.00;26.67;;;;;19.56;36.82;101529.97;5034813;28;45491;-39
2022/04/26 13:30:23;;;;;;;;;31.33;26.67;;;;;19.59;37.19;101523.34;5034990;28;45545;-41
2022/04/26 13:32:49;;;;;;;;;30.33;25.00;;;;;19.64;37.30;101523.69;5034789;28;45578;-43
2022/04/26 13:35:15;;;;;;;;;32.33;30.00;;;;;19.67;36.95;101521.41;5033494;28;45589;-41
2022/04/26 13:37:43;;;;;;;;;29.67;25.33;;;;;19.60;37.06;101514.25;5034152;28;45373;-42
2022/04/26 13:40:09;;;;;;;;;25.33;24.00;;;;;19.56;37.06;101521.88;5034542;28;45532;-42
2022/04/26 13:42:35;;;;;;;;;29.33;23.00;;;;;19.62;36.75;101518.44;5034613;28;45566;-39
2022/04/26 13:45:01;;;;;;;;;21.00;19.67;;;;;19.66;36.54;101521.63;5034119;28;46153;-37
2022/04/26 13:47:27;;;;;;;;;24.00;21.67;;;;;19.64;36.53;101521.81;5034583;28;45512;-42
2022/04/26 13:49:53;;;;;;;;;24.00;23.67;;;;;19.78;36.60;101524.69;5034412;28;45516;-48
2022/04/26 13:52:22;;;;;;;;;28.67;22.00;;;;;19.84;37.01;101511.25;5034761;28;45448;-39
2022/04/26 13:54:49;;;;;;;;;29.00;22.33;;;;;19.78;37.40;101516.59;5034209;28;45465;-44
2022/04/26 13:57:17;;;;;;;;;25.67;25.00;;;;;19.57;37.20;101504.66;5034078;28;45409;-46
2022/04/26 13:59:44;;;;;;;;;30.33;26.67;;;;;19.38;37.15;101497.13;5030289;28;45385;-41
2022/04/26 14:02:10;;;;;;;;;28.33;23.33;;;;;19.49;37.37;101507.44;5034107;28;45397;-41
2022/04/26 14:04:36;;;;;;;;;25.67;23.00;;;;;19.54;37.25;101502.31;5033764;28;46239;-40
2022/04/26 14:07:02;;;;;;;;;26.33;24.67;;;;;19.53;37.11;101491.72;5034129;28;45749;-43
2022/04/26 14:09:27;;;;;;;;;27.33;21.67;;;;;19.64;37.30;101502.94;5034248;28;45584;-41
2022/04/26 14:11:56;;;;;;;;;29.67;24.00;;;;;19.70;36.71;101498.63;5034220;28;45358;-41
2022/04/26 14:22:35;;;;;;;;;27.00;21.00;;;;;19.89;36.64;101481.84;5034209;28;45390;-42
2022/04/26 14:25:08;;;;;;;;;22.33;20.33;;;;;19.84;36.34;101488.81;5034539;28;45407;-47
2022/04/26 14:27:35;;;;;;;;;20.33;19.67;;;;;19.73;36.36;101484.75;5036674;28;45289;-47
2022/04/26 14:30:00;;;;;;;;;22.00;22.00;;;;;19.49;36.78;101482.34;5034594;28;45462;-48
2022/04/26 14:32:25;;;;;;;;;24.33;20.67;;;;;19.40;37.10;101495.91;5034170;28;45407;-40
2022/04/26 14:34:51;;;;;;;;;26.67;19.67;;;;;19.37;37.45;101493.59;5033859;28;45404;-43
2022/04/26 14:37:17;;;;;;;;;21.00;20.33;;;;;19.31;37.74;101507.84;5033802;28;45422;-47
2022/04/26 14:39:42;;;;;;;;;21.00;18.00;;;;;19.25;37.76;101500.47;5034306;28;45436;-42
2022/04/26 14:42:09;;;;;;;;;24.00;23.00;;;;;19.15;38.07;101499.91;5034719;28;45464;-40
2022/04/26 14:44:35;;;;;;;;;23.33;20.00;;;;;19.07;38.16;101498.13;5034398;28;46172;-42
2022/04/26 14:47:02;;;;;;;;;23.33;20.00;;;;;19.06;38.23;101501.03;5038244;28;45607;-46
2022/04/26 14:49:30;;;;;;;;;24.67;23.00;;;;;19.00;38.07;101499.88;5039580;28;45404;-39
2022/04/26 14:51:55;;;;;;;;;21.00;18.67;;;;;19.03;38.09;101499.53;5039525;28;45500;-46
2022/04/26 14:54:22;;;;;;;;;18.67;15.33;;;;;19.00;37.21;101497.19;5039567;28;45970;-39
2022/04/26 14:56:48;;;;;;;;;20.00;16.00;;;;;18.94;37.23;101501.47;5039892;28;45362;-46
2022/04/26 14:59:15;;;;;;;;;18.00;18.00;;;;;18.89;37.41;101500.34;5039985;28;45266;-46
2022/04/26 15:01:45;;;;;;;;;20.00;19.00;;;;;18.85;37.52;101499.88;5039824;28;45533;-40
2022/04/26 15:04:10;;;;;;;;;22.33;20.67;;;;;18.82;37.66;101497.53;5039530;28;46171;-45
2022/04/26 15:06:35;;;;;;;;;18.33;17.00;;;;;18.82;37.78;101502.09;5039638;28;45447;-42
2022/04/26 15:11:45;;;;;;;;;19.00;16.00;;;;;18.68;37.82;101501.00;5039942;28;45370;-39
2022/04/26 15:16:54;;;;;;;;;23.00;21.33;;;;;18.59;37.78;101499.41;5039338;28;45491;-45
2022/04/26 15:19:20;;;;;;;;;18.00;16.67;;;;;18.61;37.69;101500.03;5039429;28;45356;-44